createdAt,value
2023-02-23T00:01:00.562Z,12.79
2023-02-23T00:03:32.839Z,13.02
2023-02-23T00:06:30.118Z,12.75
2023-02-23T00:12:17.857Z,13.24
2023-02-23T00:14:56.371Z,13.64
2023-02-23T00:17:42.345Z,13.51
2023-02-23T00:20:27.454Z,13.59
2023-02-23T00:22:56.263Z,13.54
2023-02-23T00:25:26.304Z,13.29
2023-02-23T00:27:55.018Z,13.68
2023-02-23T00:30:21.802Z,13.97
2023-02-23T00:32:54.895Z,13.25
2023-02-23T00:35:27.368Z,13.16
2023-02-23T00:38:11.320Z,13.34
2023-02-23T00:40:46.911Z,13.37
2023-02-23T00:43:24.098Z,13.28
2023-02-23T00:45:54.816Z,13.02
2023-02-23T00:48:24.846Z,13.33
2023-02-23T00:51:04.183Z,13.45
2023-02-23T00:53:31.485Z,12.88
2023-02-23T00:55:58.883Z,12.85
2023-02-23T00:58:37.120Z,12.78
2023-02-23T01:01:13.997Z,12.49
2023-02-23T01:03:44.901Z,12.21
2023-02-23T01:06:15.770Z,12.54
2023-02-23T01:08:53.212Z,12.49
2023-02-23T01:11:28.727Z,12.37
2023-02-23T01:13:58.422Z,12.72
2023-02-23T01:16:52.958Z,12.78
2023-02-23T01:19:20.373Z,12.40
2023-02-23T01:22:10.984Z,12.43
2023-02-23T01:24:46.254Z,13.12
2023-02-23T01:27:25.973Z,13.23
2023-02-23T01:29:57.929Z,13.32
2023-02-23T01:32:27.262Z,13.44
2023-02-23T01:34:57.187Z,13.26
2023-02-23T01:37:59.111Z,13.03
2023-02-23T01:40:39.642Z,13.13
2023-02-23T01:43:12.076Z,13.07
2023-02-23T01:45:47.887Z,12.91
2023-02-23T01:48:32.663Z,12.52
2023-02-23T01:51:31.402Z,12.41
2023-02-23T01:54:17.416Z,12.31
2023-02-23T01:57:06.689Z,12.00
2023-02-23T01:59:42.079Z,11.80
2023-02-23T02:02:09.430Z,11.68
2023-02-23T02:04:44.697Z,11.57
2023-02-23T02:07:17.144Z,11.35
2023-02-23T02:10:04.600Z,11.22
2023-02-23T02:12:32.692Z,11.16
2023-02-23T02:15:00.852Z,11.11
2023-02-23T02:17:45.318Z,11.03
2023-02-23T02:20:38.942Z,10.95
2023-02-23T02:23:49.208Z,10.87
2023-02-23T02:26:33.943Z,10.95
2023-02-23T02:29:32.389Z,10.89
2023-02-23T02:32:31.976Z,11.01
2023-02-23T02:35:46.972Z,10.87
2023-02-23T02:38:40.352Z,10.76
2023-02-23T02:42:05.736Z,10.81
2023-02-23T02:44:57.782Z,10.84
2023-02-23T02:47:52.893Z,10.77
2023-02-23T02:50:51.370Z,10.78
2023-02-23T02:53:34.183Z,10.80
2023-02-23T02:56:27.618Z,10.85
2023-02-23T03:01:56.717Z,10.80
2023-02-23T03:04:44.116Z,10.90
2023-02-23T03:08:08.087Z,11.00
2023-02-23T03:11:09.781Z,11.22
2023-02-23T03:14:20.605Z,11.13
2023-02-23T03:17:43.427Z,11.86
2023-02-23T03:20:40.833Z,11.57
2023-02-23T03:23:32.417Z,11.74
2023-02-23T03:26:56.619Z,12.43
2023-02-23T03:30:33.632Z,12.51
2023-02-23T03:36:45.449Z,12.82
2023-02-23T03:42:54.215Z,12.64
2023-02-23T03:45:44.844Z,12.79
2023-02-23T03:48:42.747Z,12.99
2023-02-23T03:51:37.533Z,12.99
2023-02-23T03:54:50.196Z,13.25
2023-02-23T03:57:43.912Z,13.18
2023-02-23T04:00:39.220Z,12.75
2023-02-23T04:03:42.067Z,12.82
2023-02-23T04:06:37.106Z,12.28
2023-02-23T04:09:25.968Z,11.87
2023-02-23T04:12:33.997Z,11.93
2023-02-23T04:15:08.618Z,12.31
2023-02-23T04:17:47.149Z,12.76
2023-02-23T04:20:18.377Z,12.96
2023-02-23T04:22:45.298Z,13.02
2023-02-23T04:25:17.445Z,12.33
2023-02-23T04:27:49.234Z,11.91
2023-02-23T04:30:16.260Z,11.80
2023-02-23T04:32:47.696Z,11.91
2023-02-23T04:35:22.783Z,11.74
2023-02-23T04:37:56.580Z,11.71
2023-02-23T04:40:31.228Z,11.89
2023-02-23T04:43:03.517Z,12.39
2023-02-23T04:45:31.530Z,12.72
2023-02-23T04:48:06.914Z,12.91
2023-02-23T04:50:35.441Z,13.05
2023-02-23T04:53:09.950Z,13.24
2023-02-23T04:55:40.096Z,13.13
2023-02-23T04:58:17.155Z,12.71
2023-02-23T05:00:44.290Z,12.52
2023-02-23T05:03:13.005Z,12.58
2023-02-23T05:05:43.153Z,12.31
2023-02-23T05:08:15.001Z,11.96
2023-02-23T05:10:55.236Z,11.86
2023-02-23T05:13:24.990Z,11.93
2023-02-23T05:15:55.932Z,11.68
2023-02-23T05:18:22.735Z,11.45
2023-02-23T05:21:21.590Z,11.33
2023-02-23T05:23:51.398Z,11.23
2023-02-23T05:26:18.953Z,11.12
2023-02-23T05:28:46.049Z,11.14
2023-02-23T05:31:13.313Z,11.62
2023-02-23T05:33:43.008Z,11.59
2023-02-23T05:36:38.321Z,11.36
2023-02-23T05:39:10.695Z,11.30
2023-02-23T05:41:37.674Z,11.22
2023-02-23T05:44:07.712Z,11.16
2023-02-23T05:46:38.103Z,11.16
2023-02-23T05:49:12.644Z,11.14
2023-02-23T05:51:41.274Z,11.04
2023-02-23T05:54:15.397Z,11.01
2023-02-23T05:56:49.129Z,11.04
2023-02-23T05:59:38.057Z,10.95
2023-02-23T06:02:06.419Z,11.06
2023-02-23T06:04:48.357Z,11.08
2023-02-23T06:07:31.166Z,11.07
2023-02-23T06:10:06.210Z,10.88
2023-02-23T06:12:42.047Z,11.03
2023-02-23T06:15:09.991Z,11.05
2023-02-23T06:17:39.670Z,11.01
2023-02-23T06:20:07.443Z,10.98
2023-02-23T06:22:34.348Z,11.03
2023-02-23T06:25:14.749Z,11.21
2023-02-23T06:27:48.867Z,11.20
2023-02-23T06:30:18.602Z,11.19
2023-02-23T06:32:52.873Z,11.22
2023-02-23T06:35:29.869Z,11.20
2023-02-23T06:38:22.047Z,11.21
2023-02-23T06:40:51.019Z,11.24
2023-02-23T06:43:26.788Z,11.44
2023-02-23T06:45:59.901Z,11.40
2023-02-23T06:48:30.050Z,11.42
2023-02-23T06:51:07.557Z,11.59
2023-02-23T06:53:34.736Z,11.66
2023-02-23T06:56:14.089Z,11.64
2023-02-23T06:58:43.297Z,11.59
2023-02-23T07:01:10.363Z,11.56
2023-02-23T07:03:37.184Z,11.74
2023-02-23T07:06:05.910Z,11.70
2023-02-23T07:08:36.149Z,11.71
2023-02-23T07:11:18.442Z,11.72
2023-02-23T07:13:48.855Z,11.60
2023-02-23T07:16:20.658Z,11.63
2023-02-23T07:18:50.429Z,11.59
2023-02-23T07:21:20.699Z,11.58
2023-02-23T07:23:50.052Z,11.70
2023-02-23T07:26:27.660Z,11.68
2023-02-23T07:29:04.258Z,11.78
2023-02-23T07:31:35.492Z,11.76
2023-02-23T07:34:05.178Z,11.78
2023-02-23T07:36:36.281Z,11.67
2023-02-23T07:39:17.255Z,11.72
2023-02-23T07:41:48.291Z,11.74
2023-02-23T07:44:16.122Z,11.73
2023-02-23T07:46:46.633Z,11.88
2023-02-23T07:49:16.653Z,11.95
2023-02-23T07:52:00.284Z,11.95
2023-02-23T07:54:36.528Z,11.88
2023-02-23T07:57:05.844Z,11.98
2023-02-23T07:59:36.040Z,12.07
2023-02-23T08:02:02.891Z,12.17
2023-02-23T08:04:42.104Z,12.36
2023-02-23T08:07:17.156Z,12.26
2023-02-23T08:09:44.125Z,12.36
2023-02-23T08:12:21.961Z,12.31
2023-02-23T08:14:51.272Z,12.33
2023-02-23T08:17:21.220Z,12.26
2023-02-23T08:19:49.910Z,12.35
2023-02-23T08:22:19.135Z,12.39
2023-02-23T08:24:49.235Z,12.47
2023-02-23T08:27:38.615Z,12.53
2023-02-23T08:30:10.966Z,12.54
2023-02-23T08:32:46.850Z,12.69
2023-02-23T08:35:42.418Z,12.94
2023-02-23T08:38:23.848Z,12.90
2023-02-23T08:41:28.496Z,12.90
2023-02-23T08:44:06.337Z,12.80
2023-02-23T08:46:36.422Z,12.79
2023-02-23T08:49:15.333Z,12.88
2023-02-23T08:51:53.399Z,12.85
2023-02-23T08:54:24.436Z,12.94
2023-02-23T08:59:35.614Z,13.07
2023-02-23T09:02:25.422Z,13.12
2023-02-23T09:05:15.122Z,13.14
2023-02-23T09:07:56.025Z,13.03
2023-02-23T09:10:31.470Z,13.06
2023-02-23T09:13:01.306Z,13.35
2023-02-23T09:15:37.965Z,13.16
2023-02-23T09:18:20.593Z,13.31
2023-02-23T09:21:08.377Z,13.29
2023-02-23T09:23:46.924Z,13.31
2023-02-23T09:26:21.857Z,13.32
2023-02-23T09:31:40.367Z,13.27
2023-02-23T09:37:07.733Z,13.39
2023-02-23T09:39:38.632Z,13.28
2023-02-23T09:42:28.912Z,13.42
2023-02-23T09:45:23.697Z,13.43
2023-02-23T09:48:13.859Z,13.31
2023-02-23T09:50:53.617Z,13.47
2023-02-23T09:53:38.580Z,13.54
2023-02-23T09:56:24.137Z,13.42
2023-02-23T09:58:53.548Z,13.51
2023-02-23T10:01:48.586Z,13.59
2023-02-23T10:05:24.186Z,13.62
2023-02-23T10:08:02.783Z,13.59
2023-02-23T10:10:38.347Z,13.66
2023-02-23T10:13:27.790Z,13.73
2023-02-23T10:16:24.852Z,13.79
2023-02-23T10:19:21.942Z,13.80
2023-02-23T10:22:02.780Z,13.72
2023-02-23T10:25:10.466Z,13.78
2023-02-23T10:27:44.423Z,13.69
2023-02-23T10:30:41.794Z,13.72
2023-02-23T10:33:30.495Z,13.93
2023-02-23T10:38:58.634Z,13.92
2023-02-23T10:41:32.514Z,13.87
2023-02-23T10:44:20.984Z,13.73
2023-02-23T10:50:01.727Z,13.62
2023-02-23T10:52:41.655Z,13.75
2023-02-23T10:55:24.435Z,13.91
2023-02-23T10:58:12.474Z,13.92
2023-02-23T11:01:07.010Z,14.05
2023-02-23T11:03:42.936Z,14.11
2023-02-23T11:06:33.798Z,14.15
2023-02-23T11:09:33.050Z,14.26
2023-02-23T11:12:37.355Z,14.29
2023-02-23T11:15:48.188Z,14.30
2023-02-23T11:18:31.057Z,14.36
2023-02-23T11:21:03.172Z,14.31
2023-02-23T11:23:37.833Z,14.51
2023-02-23T11:26:27.377Z,14.58
2023-02-23T11:29:09.960Z,14.55
2023-02-23T11:31:47.548Z,14.65
2023-02-23T11:34:36.478Z,14.58
2023-02-23T11:37:24.695Z,14.59
2023-02-23T11:40:09.791Z,14.63
2023-02-23T11:42:41.334Z,14.53
2023-02-23T11:45:38.351Z,14.62
2023-02-23T11:48:54.895Z,14.63
2023-02-23T11:51:59.195Z,14.58
2023-02-23T11:54:35.898Z,14.72
2023-02-23T11:57:10.808Z,14.71
2023-02-23T11:59:48.065Z,14.66
2023-02-23T12:02:44.788Z,14.83
2023-02-23T12:05:31.779Z,14.77
2023-02-23T12:08:27.750Z,14.82
2023-02-23T12:11:05.132Z,14.77
2023-02-23T12:14:06.909Z,14.82
2023-02-23T12:16:49.195Z,14.84
2023-02-23T12:19:34.877Z,14.90
2023-02-23T12:22:35.201Z,14.88
2023-02-23T12:25:05.199Z,14.96
2023-02-23T12:28:01.407Z,14.96
2023-02-23T12:30:48.736Z,14.92
2023-02-23T12:33:23.890Z,14.97
2023-02-23T12:36:32.508Z,15.14
2023-02-23T12:41:48.086Z,15.01
2023-02-23T12:44:35.853Z,15.15
2023-02-23T12:47:15.214Z,15.11
2023-02-23T12:49:51.514Z,15.02
2023-02-23T12:52:25.896Z,15.11
2023-02-23T12:55:02.851Z,15.30
2023-02-23T12:57:47.671Z,15.17
2023-02-23T13:00:35.635Z,15.29
2023-02-23T13:03:45.970Z,15.21
2023-02-23T13:06:32.913Z,15.06
2023-02-23T13:09:51.695Z,15.11
2023-02-23T13:12:45.123Z,15.22
2023-02-23T13:15:24.301Z,15.13
2023-02-23T13:18:06.659Z,15.15
2023-02-23T13:20:46.473Z,15.18
2023-02-23T13:24:01.629Z,15.30
2023-02-23T13:26:49.493Z,15.39
2023-02-23T13:29:46.052Z,15.30
2023-02-23T13:32:29.511Z,15.29
2023-02-23T13:35:18.060Z,15.21
2023-02-23T13:38:17.476Z,15.04
2023-02-23T13:41:27.228Z,15.02
2023-02-23T13:44:16.053Z,15.11
2023-02-23T13:47:09.012Z,15.37
2023-02-23T13:50:18.769Z,15.31
2023-02-23T13:52:58.453Z,15.20
2023-02-23T13:55:46.931Z,15.22
2023-02-23T13:58:27.247Z,15.24
2023-02-23T14:01:24.336Z,15.10
2023-02-23T14:04:19.834Z,15.10
2023-02-23T14:07:01.907Z,15.18
2023-02-23T14:09:37.614Z,15.19
2023-02-23T14:12:40.383Z,15.10
2023-02-23T14:15:25.495Z,15.09
2023-02-23T14:18:00.712Z,14.98
2023-02-23T14:20:47.257Z,15.01
2023-02-23T14:23:20.004Z,14.99
2023-02-23T14:26:05.566Z,15.05
2023-02-23T14:28:39.191Z,15.05
2023-02-23T14:31:16.168Z,14.95
2023-02-23T14:33:42.952Z,15.01
2023-02-23T14:36:22.108Z,15.04
2023-02-23T14:39:02.427Z,15.08
2023-02-23T14:41:58.416Z,15.05
2023-02-23T14:44:31.496Z,14.95
2023-02-23T14:47:06.890Z,14.91
2023-02-23T14:49:42.218Z,14.93
2023-02-23T14:52:27.873Z,14.98
2023-02-23T14:55:13.017Z,14.97
2023-02-23T14:57:52.639Z,14.89
2023-02-23T15:00:30.475Z,14.97
2023-02-23T15:06:06.650Z,14.73
2023-02-23T15:08:49.871Z,14.76
2023-02-23T15:11:19.634Z,14.84
2023-02-23T15:13:58.565Z,14.81
2023-02-23T15:16:36.902Z,14.84
2023-02-23T15:19:34.436Z,14.81
2023-02-23T15:22:25.514Z,14.80
2023-02-23T15:25:07.213Z,14.88
2023-02-23T15:27:56.014Z,14.85
2023-02-23T15:30:38.354Z,14.82
2023-02-23T15:33:11.282Z,14.73
2023-02-23T15:36:27.707Z,14.71
2023-02-23T15:39:14.803Z,14.87
2023-02-23T15:41:49.201Z,14.89
2023-02-23T15:44:32.300Z,14.90
2023-02-23T15:47:18.827Z,14.80
2023-02-23T15:49:47.044Z,14.82
2023-02-23T15:56:15.734Z,14.85
2023-02-23T15:59:03.894Z,14.91
2023-02-23T16:02:01.573Z,14.87
2023-02-23T16:04:48.766Z,14.84
2023-02-23T16:07:24.777Z,14.75
2023-02-23T16:10:06.671Z,14.74
2023-02-23T16:12:43.556Z,14.75
2023-02-23T16:15:35.672Z,14.71
2023-02-23T16:18:10.170Z,14.74
2023-02-23T16:20:41.831Z,14.73
2023-02-23T16:23:34.322Z,14.73
2023-02-23T16:26:30.789Z,14.64
2023-02-23T16:29:08.011Z,14.68
2023-02-23T16:31:58.274Z,14.79
2023-02-23T16:35:26.462Z,14.77
2023-02-23T16:38:01.250Z,14.83
2023-02-23T16:40:39.774Z,14.71
2023-02-23T16:43:06.965Z,14.79
2023-02-23T16:45:33.952Z,14.84
2023-02-23T16:48:15.435Z,14.77
2023-02-23T16:51:11.824Z,14.76
2023-02-23T16:53:52.566Z,14.90
2023-02-23T16:56:35.911Z,14.80
2023-02-23T16:59:22.615Z,14.79
2023-02-23T17:02:09.909Z,14.88
2023-02-23T17:04:57.908Z,14.76
2023-02-23T17:07:30.662Z,14.88
2023-02-23T17:10:06.466Z,14.81
2023-02-23T17:12:34.589Z,14.67
2023-02-23T17:15:19.654Z,14.71
2023-02-23T17:17:50.847Z,14.76
2023-02-23T17:20:26.198Z,14.72
2023-02-23T17:23:08.706Z,14.74
2023-02-23T17:25:38.614Z,14.82
2023-02-23T17:28:17.971Z,14.80
2023-02-23T17:31:25.482Z,14.70
2023-02-23T17:34:02.964Z,14.86
2023-02-23T17:36:40.296Z,14.91
2023-02-23T17:41:45.814Z,14.56
2023-02-23T17:44:13.079Z,14.71
2023-02-23T17:46:41.293Z,14.75
2023-02-23T17:49:08.474Z,14.69
2023-02-23T17:51:44.003Z,14.53
2023-02-23T17:54:34.374Z,14.52
2023-02-23T17:57:23.751Z,14.88
2023-02-23T17:59:54.214Z,14.79
2023-02-23T18:02:42.734Z,14.79
2023-02-23T18:05:23.577Z,14.75
2023-02-23T18:07:54.303Z,14.81
2023-02-23T18:10:36.224Z,14.75
2023-02-23T18:13:09.199Z,14.67
2023-02-23T18:15:42.649Z,14.84
2023-02-23T18:18:25.823Z,14.91
2023-02-23T18:21:03.478Z,14.75
2023-02-23T18:23:50.295Z,14.76
2023-02-23T18:26:31.021Z,14.70
2023-02-23T18:29:21.791Z,14.56
2023-02-23T18:31:50.077Z,14.57
2023-02-23T18:34:25.653Z,14.67
2023-02-23T18:36:55.982Z,14.63
2023-02-23T18:39:47.227Z,14.56
2023-02-23T18:42:17.756Z,14.67
2023-02-23T18:44:47.901Z,14.76
2023-02-23T18:47:14.777Z,14.56
2023-02-23T18:49:48.483Z,14.56
2023-02-23T18:52:25.475Z,14.65
2023-02-23T18:57:42.193Z,14.54
2023-02-23T19:00:22.199Z,14.45
2023-02-23T19:02:49.656Z,14.35
2023-02-23T19:05:22.213Z,14.35
2023-02-23T19:07:49.657Z,14.38
2023-02-23T19:10:23.978Z,14.35
2023-02-23T19:12:53.786Z,14.30
2023-02-23T19:15:37.612Z,14.34
2023-02-23T19:18:05.796Z,14.35
2023-02-23T19:20:38.392Z,14.35
2023-02-23T19:25:55.442Z,14.51
2023-02-23T19:28:29.416Z,14.67
2023-02-23T19:31:08.608Z,14.54
2023-02-23T19:33:42.182Z,14.63
2023-02-23T19:36:24.656Z,14.54
2023-02-23T19:38:51.803Z,14.42
2023-02-23T19:41:25.191Z,14.48
2023-02-23T19:43:59.331Z,14.56
2023-02-23T19:46:40.792Z,14.39
2023-02-23T19:52:00.695Z,14.27
2023-02-23T19:54:51.596Z,14.32
2023-02-23T19:57:33.797Z,14.53
2023-02-23T20:00:34.080Z,14.56
2023-02-23T20:05:54.608Z,14.29
2023-02-23T20:08:29.409Z,14.39
2023-02-23T20:11:01.302Z,14.26
2023-02-23T20:14:00.696Z,14.19
2023-02-23T20:17:01.845Z,14.07
2023-02-23T20:19:29.531Z,14.25
2023-02-23T20:21:58.076Z,14.25
2023-02-23T20:24:33.886Z,14.14
2023-02-23T20:29:46.942Z,14.19
2023-02-23T20:32:26.387Z,14.19
2023-02-23T20:34:55.013Z,14.06
2023-02-23T20:37:21.882Z,14.16
2023-02-23T20:40:00.949Z,14.18
2023-02-23T20:42:30.080Z,13.91
2023-02-23T20:44:57.686Z,13.65
2023-02-23T20:47:25.463Z,13.52
2023-02-23T20:49:56.296Z,13.32
2023-02-23T20:55:12.913Z,13.28
2023-02-23T20:57:44.136Z,13.84
2023-02-23T21:00:15.883Z,14.00
2023-02-23T21:02:43.008Z,13.79
2023-02-23T21:05:16.258Z,13.70
2023-02-23T21:07:55.275Z,13.47
2023-02-23T21:10:22.158Z,12.94
2023-02-23T21:12:51.365Z,12.61
2023-02-23T21:15:18.949Z,12.45
2023-02-23T21:17:45.871Z,12.35
2023-02-23T21:20:21.968Z,12.25
2023-02-23T21:22:52.857Z,12.48
2023-02-23T21:25:23.352Z,12.67
2023-02-23T21:27:52.002Z,12.91
2023-02-23T21:30:30.278Z,12.90
2023-02-23T21:33:10.620Z,12.91
2023-02-23T21:35:43.550Z,12.99
2023-02-23T21:38:14.930Z,13.29
2023-02-23T21:40:42.498Z,13.39
2023-02-23T21:43:30.748Z,13.50
2023-02-23T21:46:22.038Z,13.94
2023-02-23T21:48:56.804Z,14.30
2023-02-23T21:51:38.704Z,14.41
2023-02-23T21:54:17.828Z,14.18
2023-02-23T21:56:55.916Z,13.71
2023-02-23T21:59:22.772Z,13.15
2023-02-23T22:02:08.239Z,12.89
2023-02-23T22:04:51.245Z,12.46
2023-02-23T22:07:32.174Z,12.27
2023-02-23T22:09:59.378Z,12.28
2023-02-23T22:12:29.052Z,12.30
2023-02-23T22:14:58.517Z,12.85
2023-02-23T22:17:28.537Z,12.94
2023-02-23T22:20:10.492Z,12.71
2023-02-23T22:22:50.657Z,12.92
2023-02-23T22:25:21.592Z,12.87
2023-02-23T22:27:48.436Z,12.53
2023-02-23T22:30:18.803Z,12.09
2023-02-23T22:32:46.548Z,11.77
2023-02-23T22:38:29.247Z,11.68
2023-02-23T22:41:05.325Z,11.44
2023-02-23T22:43:43.309Z,11.34
2023-02-23T22:46:18.550Z,12.17
2023-02-23T22:48:51.342Z,12.77
2023-02-23T22:51:31.604Z,13.02
2023-02-23T22:54:30.868Z,13.15
2023-02-23T22:56:59.450Z,13.25
2023-02-23T22:59:31.994Z,13.09
2023-02-23T23:02:07.639Z,12.60
2023-02-23T23:04:36.890Z,12.89
2023-02-23T23:07:16.032Z,12.25
2023-02-23T23:09:48.949Z,12.34
2023-02-23T23:12:51.084Z,12.55
2023-02-23T23:15:22.195Z,11.90
2023-02-23T23:17:50.138Z,11.80
2023-02-23T23:20:29.721Z,12.35
2023-02-23T23:22:57.462Z,12.18
2023-02-23T23:28:15.649Z,12.40
2023-02-23T23:30:55.960Z,11.93
2023-02-23T23:33:26.833Z,11.41
2023-02-23T23:35:57.538Z,11.12
2023-02-23T23:38:58.230Z,10.89
2023-02-23T23:41:49.665Z,10.87
2023-02-23T23:44:31.072Z,11.16
2023-02-23T23:46:58.535Z,11.27
2023-02-23T23:49:32.785Z,11.10
2023-02-23T23:52:28.227Z,10.82
2023-02-23T23:57:35.663Z,10.44
